Broadalbin, NY

23:02 EDT le 22 octobre 2014 (GMT -0400)
Sacandaga Lake | Change Station
CLOSE
Current Station
Stations météorologiques personnelles
Location: Broadalbin, NY
Altitude: 770 ft
Stations météo à proximité

Alt. 770 ft 43.12 °N, 74.15 °W | Updated 39 minutes ago

Couvert
Couvert
49.6 ° F
Paraît 44 ° F
N
17.0
Vent Variable Vent de NNE
Gusts 21.0 mph

Aujourd'hui
Haut(e) -- | Bas -- ° F
--% Risque de précip.
Hier
Haut(e) -- | Bas -- ° F
Precip. -- pouce
7:18 AM 6:02 PM
Lune descendante, 1% visible
Pression 29.98 pouce
Visibilité 10.0 Miles terrestres
Nuages Nuages épars 2900 ft
Nuageux 3500 ft
Couvert 4500 ft
Refroidissement éolien 44 ° F
Point de rosée 47 ° F
Humidité 91%
Précipitations 0.07 pouce
Profondeur de la couche neigeuse Non disponible.
UV 0 sur 12
Pollen .10 sur 12
Ozone Bon
PM2.5 Bon
Flu Activity Sporadic
METAR KSCH 230150Z 36006KT 10SM -DZ SCT029 BKN035 OVC045 09/08 A2998

More Conditions Fewer Conditions

Pression 29.98 pouce
Visibilité 10.0 Miles terrestres
Nuages Nuages épars 2900 ft
Nuageux 3500 ft
Couvert 4500 ft
Refroidissement éolien 44 ° F
Point de rosée 47 ° F
Humidité 91%
Précipitations 0.07 pouce
Profondeur de la couche neigeuse Non disponible.
UV 0 sur 12
Pollen .10 sur 12
Ozone Bon
PM2.5 Bon
Flu Activity Sporadic
METAR KSCH 230150Z 36006KT 10SM -DZ SCT029 BKN035 OVC045 09/08 A2998

More Conditions Fewer Conditions

10-Day Weather Forecast

Almanac

Astronomie

Oct. 22, 2014 Lever Coucher
Temps réel 07:18 EDT 18:02 EDT
Crépuscule civil 06:49 EDT 18:31 EDT
Crépuscule nautique 06:16 EDT 19:04 EDT
Crépuscule astronomique 05:43 EDT 19:37 EDT
Lune 05:55 EDT (10/22) 17:29 EDT (10/22)
Durée de lumière visible 11h 42m
Longueur du jour
10h 44m
Tomorrow will be 2m 45s shorter.
Lune descendante, 1% of the Moon is Illuminated
Aujourd'hui
Lune descendante
Oct 23
Nouveau
Oct 30
Premier quartier
Nov 6
Pleine lune
Nov 14
Dernier quartier

Extrêmes aujourd'hui

State Highs State Lows

Community

WunderPhotos

Upload Photos

1,764,121 Photos téléchargées !

Nearby

Qualité de l'air

  Qualité de l'air Indice de la qualité de l'air Polluant
Hier Bon
PM2.5
Hier Bon
OZONE
Actuel Bon
OZONE
Actuel Bon
PM2.5
mercredi Bon
PM2.5
jeudi Bon
PM2.5

Épaisseur de neige

Station Depth Altitude
Pas de nouvelles chutes de neige

Activité sismique

Ville Distance Mag. Time & Date
No recent earthquake activity has been reported nearby.
Minimum magnitude displayed is 2.5.

Températures des eaux côtières

Lieu Température
Aucun rapport de station

Stations météo à proximité